Latest Weather Observations for Mortlake

IDV60801

Issued at 10:35 am EST Thursday 24 April 2014 (issued every 30 minutes, with the page automatically refreshed every 10 minutes)

About weather observations | Map of weather stations | Latest weather observations for VIC | Other Formats
Station Details ID: 090176 Name: MORTLAKE RACECOURSE Lat: -38.07 Lon: 142.77 Height: 130.0 m
Data from the previous 72 hours. | See also: Recent months at Mortlake
Date/Time
EST
Temp
°C
App
Temp
°C
Dew
Point
Rel
Hum
%
Delta-T
°C
Wind Press
QNH
hPa
Press
MSL
hPa
Rain
since 9 am
mm
Dir
 
Spd
km/h
Gust
km/h
Spd
kts
Gust
kts
24/10:30am 13.2 7.5 5.1 58 3.8 SW 24 37 13 20 1017.6 - 0.0
24/10:00am 14.1 9.0 3.3 48 4.9 SW 19 28 10 15 1017.1 1017.0 0.0
24/09:30am 13.2 6.8 3.0 50 4.6 SW 26 33 14 18 1016.8 - 0.0
24/09:00am 12.5 7.0 5.7 63 3.2 SW 24 35 13 19 1016.4 1016.3 1.6
24/08:30am 11.8 8.4 7.7 76 2.0 WSW 15 22 8 12 1015.8 - 1.6
24/08:00am 11.4 8.4 7.7 78 1.8 WSW 13 20 7 11 1015.1 1015.0 1.6
24/07:30am 11.5 9.0 9.6 88 1.0 WSW 13 19 7 10 1014.4 - 1.6
24/07:00am 11.8 9.1 10.2 90 0.8 WSW 15 22 8 12 1013.6 1013.6 1.6
24/06:30am 11.7 9.7 11.5 99 0.1 WSW 13 19 7 10 1012.9 - 1.6
24/06:00am 12.2 10.0 12.0 99 0.1 WSW 15 20 8 11 1012.2 1012.2 1.6
24/05:30am 12.8 9.4 12.6 99 0.1 WSW 22 33 12 18 1011.5 - 1.0
24/05:00am 12.6 8.8 11.3 92 0.7 NW 22 32 12 17 1010.4 1010.3 0.2
24/04:30am 12.3 8.0 9.5 83 1.4 NW 22 30 12 16 1010.1 - 0.2
24/04:00am 12.9 7.9 9.4 79 1.8 NW 26 37 14 20 1010.0 1009.9 0.2
24/03:30am 12.4 7.5 8.5 77 1.9 NW 24 32 13 17 1009.7 - 0.2
24/03:00am 12.5 7.9 8.2 75 2.1 NW 22 32 12 17 1009.8 1009.7 0.2
24/02:30am 12.7 8.0 7.6 71 2.5 NW 22 30 12 16 1010.0 - 0.2
24/02:00am 14.0 8.6 7.8 66 3.1 NW 26 37 14 20 1010.3 1010.2 0.2
24/01:30am 13.8 8.6 7.1 64 3.3 NW 24 32 13 17 1010.5 - 0.2
24/01:00am 13.0 9.0 6.8 66 3.0 NNW 17 22 9 12 1010.7 1010.6 0.2
24/12:30am 11.6 8.4 6.9 73 2.3 NNW 13 15 7 8 1010.9 - 0.2
24/12:00am 12.0 9.0 7.5 74 2.2 NW 13 17 7 9 1011.1 1011.0 0.2
 
Date/Time
EST
Temp
°C
App
Temp
°C
Dew
Point
Rel
Hum
%
Delta-T
°C
Wind Press
QNH
hPa
Press
MSL
hPa
Rain
since 9 am
mm
Dir
 
Spd
km/h
Gust
km/h
Spd
kts
Gust
kts
23/11:30pm 12.1 8.3 7.6 74 2.2 NW 17 22 9 12 1011.6 - 0.2
23/11:00pm 11.9 7.8 8.0 77 1.9 NNW 19 22 10 12 1011.8 1011.7 0.2
23/10:30pm 10.7 7.3 7.8 82 1.4 N 15 17 8 9 1012.2 - 0.2
23/10:00pm 9.8 7.1 7.2 84 1.2 NNW 11 13 6 7 1012.4 1012.4 0.2
23/09:30pm 10.4 7.7 7.3 81 1.5 N 11 13 6 7 1012.5 - 0.2
23/09:00pm 10.5 7.9 7.6 82 1.4 N 11 15 6 8 1012.6 1012.6 0.2
23/08:30pm 10.8 7.8 7.9 82 1.4 N 13 15 7 8 1012.6 - 0.2
23/08:00pm 10.6 7.6 7.8 83 1.4 N 13 13 7 7 1012.8 1012.8 0.2
23/07:30pm 10.9 8.8 8.1 83 1.4 N 9 11 5 6 1013.0 - 0.2
23/07:00pm 10.8 9.0 7.9 82 1.4 N 7 7 4 4 1012.8 1012.8 0.2
23/06:30pm 11.8 9.9 7.7 76 2.0 N 7 7 4 4 1012.7 - 0.2
23/06:00pm 12.7 10.9 8.0 73 2.3 NNW 7 7 4 4 1012.8 1012.8 0.2
23/05:30pm 13.8 12.0 7.8 67 3.0 NNW 7 9 4 5 1012.8 - 0.2
23/05:00pm 15.6 12.1 7.4 58 4.1 NW 15 20 8 11 1012.8 1012.8 0.2
23/04:30pm 16.4 13.0 7.6 56 4.4 NW 15 20 8 11 1012.9 - 0.2
23/04:00pm 17.6 13.8 7.6 52 5.1 NNW 17 22 9 12 1013.1 1013.1 0.2
23/03:30pm 17.1 12.8 7.7 54 4.8 NW 20 28 11 15 1013.2 - 0.2
23/03:00pm 16.8 13.1 8.0 56 4.5 NW 17 24 9 13 1013.5 1013.5 0.2
23/02:30pm 17.7 13.4 7.7 52 5.1 WNW 20 32 11 17 1014.0 - 0.2
23/02:00pm 17.0 13.4 8.2 56 4.5 NW 17 26 9 14 1014.2 1014.1 0.2
23/01:30pm 16.9 13.4 8.6 58 4.3 WNW 17 24 9 13 1014.5 - 0.2
23/01:00pm 16.6 12.3 7.8 56 4.5 NW 20 28 11 15 1014.8 1014.7 0.0
23/12:30pm 15.6 11.8 7.6 59 4.0 NW 17 26 9 14 1015.1 - 0.0
23/12:00pm 15.3 11.7 8.3 63 3.5 NW 17 26 9 14 1015.9 1015.8 0.0
23/11:30am 15.6 12.1 8.8 64 3.5 NW 17 26 9 14 1016.4 - 0.0
23/11:00am 15.2 12.4 10.0 71 2.7 NW 15 22 8 12 1016.9 1016.8 0.0
23/10:30am 14.5 11.6 11.1 80 1.8 NW 17 22 9 12 1017.3 - 0.0
23/10:00am 13.0 10.5 11.2 89 1.0 NNW 15 19 8 10 1017.4 1017.3 0.0
23/09:30am 11.4 9.3 11.2 99 0.1 NNW 13 17 7 9 1017.4 - 0.0
23/09:00am 10.2 8.6 10.1 99 0.1 N 9 13 5 7 1017.4 1017.3 0.0
23/08:30am 9.2 7.3 9.1 99 0.0 N 9 11 5 6 1017.4 - 0.0
23/08:00am 7.3 5.5 7.2 99 0.0 WSW 6 11 3 6 1017.2 1017.1 0.0
23/07:30am 4.6 2.1 4.5 99 0.0 WSW 7 9 4 5 1017.2 - 0.0
23/07:00am 2.2 -0.8 2.1 99 0.0 WSW 7 7 4 4 1017.1 1017.0 0.0
23/06:30am 4.1 1.6 4.0 99 0.0 WSW 6 7 3 4 1016.8 - 0.0
23/06:00am 4.4 1.8 4.3 99 0.0 WSW 7 9 4 5 1016.6 1016.5 0.0
23/05:30am 3.4 0.6 3.3 99 0.0 WSW 7 7 4 4 1016.5 - 0.0
23/05:00am 3.3 0.5 3.2 99 0.0 WSW 7 9 4 5 1016.6 1016.5 0.0
23/04:30am 3.6 0.9 3.5 99 0.0 WSW 7 7 4 4 1016.5 - 0.0
23/04:00am 3.8 1.3 3.7 99 0.0 WSW 6 6 3 3 1016.5 1016.4 0.0
23/03:30am 2.9 0.2 2.8 99 0.0 WSW 6 7 3 4 1016.3 - 0.0
23/03:00am 4.5 2.1 4.4 99 0.0 WSW 6 6 3 3 1016.7 1016.6 0.0
23/02:30am 5.1 2.8 5.0 99 0.0 WSW 6 7 3 4 1016.8 - 0.0
23/02:00am 4.5 1.9 4.4 99 0.0 WSW 7 9 4 5 1017.1 1017.0 0.0
23/01:30am 4.7 2.4 4.6 99 0.0 WSW 6 7 3 4 1017.4 - 0.0
23/01:00am 5.2 3.0 5.1 99 0.0 WSW 6 7 3 4 1017.6 1017.5 0.0
23/12:30am 5.0 2.5 4.9 99 0.0 WSW 7 7 4 4 1017.7 - 0.0
23/12:00am 5.5 3.3 5.4 99 0.0 WSW 6 7 3 4 1017.8 1017.7 0.0
 
Date/Time
EST
Temp
°C
App
Temp
°C
Dew
Point
Rel
Hum
%
Delta-T
°C
Wind Press
QNH
hPa
Press
MSL
hPa
Rain
since 9 am
mm
Dir
 
Spd
km/h
Gust
km/h
Spd
kts
Gust
kts
22/11:30pm 5.5 3.3 5.4 99 0.0 WSW 6 6 3 3 1018.0 - 0.0
22/11:00pm 5.1 2.6 5.0 99 0.0 WSW 7 13 4 7 1018.1 1018.0 0.0
22/10:30pm 5.2 3.3 5.1 99 0.0 WSW 4 6 2 3 1018.2 - 0.0
22/10:00pm 5.7 3.9 5.6 99 0.0 WSW 4 6 2 3 1018.2 1018.1 0.0
22/09:30pm 7.9 6.6 7.8 99 0.0 WSW 4 4 2 2 1018.2 - 0.0
22/09:00pm 6.6 5.4 6.5 99 0.0 SSW 2 4 1 2 1018.1 1018.0 0.0
22/08:30pm 7.0 5.5 6.9 99 0.0 S 4 4 2 2 1018.0 - 0.0
22/08:00pm 7.9 6.9 7.3 96 0.3 S 2 4 1 2 1017.8 1017.7 0.0
22/07:30pm 8.5 7.9 7.4 93 0.5 CALM 0 0 0 0 1017.6 - 0.0
22/07:00pm 9.2 8.1 7.0 86 1.0 S 2 4 1 2 1017.5 1017.4 0.0
22/06:30pm 11.1 9.5 8.0 81 1.5 SSW 6 7 3 4 1017.1 - 0.0
22/06:00pm 12.0 10.2 7.9 76 2.0 SSW 7 9 4 5 1016.9 1016.8 0.0
22/05:30pm 14.0 11.5 8.2 68 2.9 SSW 11 15 6 8 1016.5 - 0.0
22/05:00pm 15.5 12.8 9.0 65 3.3 SSW 13 19 7 10 1016.3 1016.2 0.0
22/04:30pm 15.5 12.4 8.7 64 3.5 SSW 15 20 8 11 1016.0 - 0.0
22/04:00pm 15.3 11.7 8.3 63 3.5 SW 17 24 9 13 1015.8 1015.7 0.0
22/03:30pm 15.8 12.2 9.7 67 3.2 SSW 19 26 10 14 1015.5 - 0.0
22/03:00pm 16.1 12.5 9.8 66 3.3 SW 19 26 10 14 1015.2 1015.1 0.0
22/02:30pm 16.1 12.4 10.0 67 3.2 SSW 20 28 11 15 1015.0 - 0.0
22/02:00pm 16.8 13.3 10.9 68 3.2 SSW 20 28 11 15 1014.8 1014.7 0.0
22/01:30pm 17.2 13.9 11.7 70 3.0 SSW 20 28 11 15 1015.0 - 0.0
22/01:00pm 16.9 13.5 11.4 70 3.0 SW 20 28 11 15 1015.1 1015.0 0.0
22/12:30pm 17.3 15.4 13.0 76 2.4 WSW 15 22 8 12 1015.2 - 0.0
22/12:00pm 16.7 14.4 13.0 79 2.1 SW 17 22 9 12 1015.3 1015.2 0.0
22/11:30am 17.4 16.2 14.1 81 1.9 WSW 13 20 7 11 1015.5 - 0.0
22/11:00am 16.8 15.7 14.4 86 1.4 WSW 13 22 7 12 1015.3 1015.2 0.0
22/10:30am 14.9 14.7 14.7 99 0.1 W 9 15 5 8 1015.2 - 0.0
22/10:00am 14.7 13.1 13.9 95 0.5 WSW 15 20 8 11 1015.2 1015.1 0.0
22/09:30am 15.0 14.4 14.7 98 0.2 W 11 17 6 9 1015.0 - 0.0
22/09:00am 14.8 14.2 14.6 99 0.1 WSW 11 19 6 10 1014.6 1014.5 14.2
22/08:30am 14.4 14.4 14.2 99 0.1 W 7 13 4 7 1014.4 - 14.2
22/08:00am 14.6 12.8 14.4 99 0.1 W 17 22 9 12 1014.0 1013.9 14.2
22/07:30am 14.4 13.6 13.9 97 0.3 WNW 11 17 6 9 1013.4 - 14.2
22/07:00am 14.4 12.4 13.8 96 0.3 NW 17 24 9 13 1013.0 1013.0 14.2
22/06:30am 14.0 11.5 13.5 97 0.3 NW 19 24 10 13 1012.4 - 14.2
22/06:00am 14.0 11.4 13.8 99 0.1 NNW 20 28 11 15 1012.2 1012.2 14.2
22/05:30am 13.8 11.3 13.6 99 0.1 NNW 19 32 10 17 1012.0 - 14.2
22/05:00am 13.7 11.2 13.5 99 0.1 N 19 24 10 13 1012.0 1012.0 13.6
22/04:30am 13.6 12.6 13.4 99 0.1 N 11 17 6 9 1012.6 - 12.8
22/04:00am 13.3 11.4 13.1 99 0.1 WSW 15 26 8 14 1013.1 1013.1 10.8
22/03:56am 13.3 11.8 13.1 99 0.1 W 13 26 7 14 1013.5 - 9.4
22/03:30am 13.2 11.3 13.0 99 0.1 N 15 20 8 11 1011.5 - 9.0
22/03:00am 13.1 12.6 12.5 96 0.3 NNW 7 13 4 7 1011.9 1011.8 8.0
22/02:30am 13.3 10.8 12.2 93 0.6 N 17 22 9 12 1011.7 - 7.4
22/02:00am 13.4 10.5 12.3 93 0.6 NNE 19 24 10 13 1011.2 1011.1 7.0
22/01:30am 13.5 10.5 12.7 95 0.4 NNE 20 24 11 13 1011.3 - 6.8
22/01:00am 13.4 10.6 13.1 98 0.2 NNE 20 26 11 14 1011.5 1011.4 6.8
22/12:30am 13.3 11.3 12.8 97 0.3 N 15 24 8 13 1013.0 - 5.6
22/12:00am 13.6 12.5 13.1 97 0.3 NNE 11 15 6 8 1012.5 1012.5 4.0
 
Date/Time
EST
Temp
°C
App
Temp
°C
Dew
Point
Rel
Hum
%
Delta-T
°C
Wind Press
QNH
hPa
Press
MSL
hPa
Rain
since 9 am
mm
Dir
 
Spd
km/h
Gust
km/h
Spd
kts
Gust
kts
21/11:30pm 14.0 12.6 13.4 96 0.3 N 13 17 7 9 1012.3 - 2.6
21/11:00pm 14.4 13.7 12.1 86 1.3 N 7 9 4 5 1013.0 1013.0 0.6
21/10:30pm 14.7 13.9 10.9 78 2.0 N 6 9 3 5 1013.1 - 0.0
21/10:00pm 16.3 12.5 9.9 66 3.4 NW 20 28 11 15 1014.0 1013.9 0.0
21/09:30pm 18.8 14.9 6.9 46 6.0 W 17 22 9 12 1013.2 - 0.0
21/09:00pm 19.1 12.6 6.6 44 6.3 N 30 43 16 23 1012.1 1012.1 0.0
21/08:32pm 19.5 12.6 6.6 43 6.5 N 32 52 17 28 1011.9 - 0.0
21/08:30pm 19.6 12.6 6.7 43 6.5 N 33 52 18 28 1011.8 - 0.0
21/08:00pm 20.0 13.5 6.7 42 6.8 N 30 41 16 22 1011.6 1011.5 0.0
21/07:30pm 20.0 12.9 6.4 41 6.9 N 33 46 18 25 1011.4 - 0.0
21/07:00pm 20.8 12.6 6.4 39 7.3 N 39 59 21 32 1011.0 1010.9 0.0
21/06:45pm 20.6 13.6 6.2 39 7.3 N 32 50 17 27 1010.8 - 0.0
21/06:30pm 20.7 13.8 6.6 40 7.2 N 32 46 17 25 1011.0 - 0.0
21/06:00pm 20.8 14.3 6.4 39 7.3 N 30 39 16 21 1011.1 1011.0 0.0
21/05:30pm 21.0 14.4 6.2 38 7.5 N 30 43 16 23 1011.2 - 0.0
21/05:00pm 21.1 13.9 5.9 37 7.7 N 33 50 18 27 1010.8 1010.7 0.0
21/04:47pm 21.0 13.9 6.2 38 7.5 N 33 52 18 28 1010.6 - 0.0
21/04:30pm 21.1 14.1 6.2 38 7.5 N 32 43 17 23 1011.0 - 0.0
21/04:00pm 20.9 13.7 6.1 38 7.5 N 33 50 18 27 1010.9 1010.8 0.0
21/03:31pm 21.3 12.6 6.0 37 7.7 N 41 61 22 33 1010.8 - 0.0
21/03:30pm 21.3 13.1 6.4 38 7.6 N 39 56 21 30 1010.9 - 0.0
21/03:15pm 21.3 13.8 6.4 38 7.6 N 35 54 19 29 1011.0 - 0.0
21/03:00pm 21.6 13.3 6.3 37 7.8 N 39 52 21 28 1011.1 1011.0 0.0
21/02:30pm 21.8 13.7 6.9 38 7.7 N 39 54 21 29 1011.6 - 0.0
21/02:20pm 21.8 13.2 6.5 37 7.8 N 41 59 22 32 1011.7 - 0.0
21/02:00pm 22.9 14.4 7.1 36 8.2 N 41 57 22 31 1012.2 1012.2 0.0
21/01:44pm 21.0 13.1 6.2 38 7.5 N 37 59 20 32 1012.2 - 0.0
21/01:30pm 20.4 13.4 6.7 41 7.0 N 33 48 18 26 1012.5 - 0.0
21/01:20pm 19.9 12.8 6.6 42 6.7 N 33 52 18 28 1012.4 - 0.0
21/01:00pm 19.0 12.1 6.5 44 6.3 N 32 44 17 24 1013.2 1013.2 0.0
21/12:30pm 18.9 12.0 6.4 44 6.3 N 32 44 17 24 1014.0 - 0.0
21/12:00pm 18.9 11.9 6.1 43 6.4 N 32 44 17 24 1014.9 1014.8 0.0
21/11:30am 19.0 11.4 5.8 42 6.5 N 35 48 19 26 1014.4 - 0.0
21/11:00am 19.6 12.5 6.4 42 6.6 N 33 44 18 24 1014.8 1014.7 0.0

Other Formats:

Comma delimited format used in spreadsheet applications
http://www.bom.gov.au/fwo/IDV60801/IDV60801.94840.axf

JavaScript Object Notation format (JSON) in row-major order
http://www.bom.gov.au/fwo/IDV60801/IDV60801.94840.json